createdAt,value
2023-04-19T00:09:12.108Z,7.40
2023-04-19T00:20:11.990Z,11.80
2023-04-19T00:31:11.863Z,8.70
2023-04-19T00:42:11.755Z,8.10
2023-04-19T00:53:11.602Z,7.50
2023-04-19T01:04:11.551Z,6.20
2023-04-19T01:15:11.344Z,8.60
2023-04-19T01:26:11.218Z,7.90
2023-04-19T01:37:11.087Z,8.20
2023-04-19T01:48:10.977Z,6.70
2023-04-19T01:59:10.859Z,6.30
2023-04-19T02:10:10.719Z,9.10
2023-04-19T02:21:10.589Z,6.90
2023-04-19T02:32:10.496Z,5.90
2023-04-19T02:43:10.355Z,7.40
2023-04-19T02:54:10.212Z,8.70
2023-04-19T03:05:10.100Z,6.40
2023-04-19T03:16:10.014Z,8.20
2023-04-19T03:27:09.824Z,9.70
2023-04-19T03:38:09.704Z,6.10
2023-04-19T03:49:09.569Z,7.90
2023-04-19T04:00:09.441Z,8.30
2023-04-19T04:11:09.319Z,13.80
2023-04-19T04:22:09.181Z,8.80
2023-04-19T04:33:09.080Z,12.80
2023-04-19T04:44:12.556Z,5.80
2023-04-19T04:55:08.835Z,8.50
2023-04-19T05:06:08.710Z,11.40
2023-04-19T05:17:08.589Z,11.40
2023-04-19T05:28:08.490Z,10.00
2023-04-19T05:39:08.336Z,10.70
2023-04-19T05:50:08.222Z,8.20
2023-04-19T06:01:08.163Z,7.00
2023-04-19T06:12:08.952Z,11.30
2023-04-19T06:23:07.827Z,8.00
2023-04-19T06:34:07.714Z,9.80
2023-04-19T06:45:07.581Z,13.20
2023-04-19T06:56:07.453Z,11.30
2023-04-19T07:07:07.470Z,7.00
2023-04-19T07:18:07.276Z,11.50
2023-04-19T07:29:07.122Z,10.40
2023-04-19T07:40:06.970Z,18.90
2023-04-19T07:51:07.023Z,5.40
2023-04-19T08:02:06.777Z,6.10
2023-04-19T08:13:06.978Z,8.30
2023-04-19T08:24:07.457Z,7.10
2023-04-19T08:35:06.337Z,11.10
2023-04-19T08:46:06.255Z,6.40
2023-04-19T08:57:06.078Z,10.70
2023-04-19T09:08:05.950Z,8.50
2023-04-19T09:30:05.713Z,7.70
2023-04-19T09:41:05.565Z,9.00
2023-04-19T09:52:06.455Z,10.20
2023-04-19T10:03:05.369Z,9.10
2023-04-19T10:14:05.208Z,9.60
2023-04-19T10:25:05.074Z,10.00
2023-04-19T10:36:04.944Z,7.80
2023-04-19T10:47:04.822Z,11.50
2023-04-19T10:58:04.700Z,7.60
2023-04-19T11:09:04.572Z,6.80
2023-04-19T11:20:04.441Z,7.20
2023-04-19T11:31:04.378Z,6.00
2023-04-19T11:42:04.198Z,5.50
2023-04-19T11:53:04.083Z,5.20
2023-04-19T12:04:03.995Z,5.00
2023-04-19T12:15:03.826Z,7.30
2023-04-19T12:26:03.712Z,7.00
2023-04-19T12:37:03.592Z,4.20
2023-04-19T12:48:03.498Z,4.80
2023-04-19T12:59:03.324Z,3.30
2023-04-19T13:10:03.204Z,4.10
2023-04-19T13:21:03.072Z,4.00
2023-04-19T13:32:02.954Z,3.70
2023-04-19T13:43:02.843Z,5.00
2023-04-19T13:54:02.711Z,4.00
2023-04-19T14:05:02.571Z,3.40
2023-04-19T14:16:02.498Z,4.70
2023-04-19T14:38:02.262Z,6.40
2023-04-19T14:49:02.079Z,2.80
2023-04-19T15:00:02.179Z,3.30
2023-04-19T15:11:01.815Z,2.70
2023-04-19T15:22:01.695Z,1.80
2023-04-19T15:33:01.641Z,2.70
2023-04-19T15:44:01.550Z,2.90
2023-04-19T15:55:01.322Z,3.70
2023-04-19T16:06:01.194Z,2.70
2023-04-19T16:17:01.066Z,1.10
2023-04-19T16:28:00.949Z,2.50
2023-04-19T16:39:00.816Z,1.60
2023-04-19T16:50:00.696Z,2.40
2023-04-19T17:01:00.606Z,2.90
2023-04-19T17:12:00.438Z,2.00
2023-04-19T17:23:00.327Z,1.90
2023-04-19T17:34:00.194Z,4.10
2023-04-19T17:45:00.143Z,1.40
2023-04-19T17:55:59.937Z,1.60
2023-04-19T18:06:59.810Z,1.80
2023-04-19T18:17:59.768Z,1.80
2023-04-19T18:28:59.557Z,2.90
2023-04-19T18:39:59.470Z,1.90
2023-04-19T18:50:59.729Z,1.70
2023-04-19T19:01:59.209Z,1.80
2023-04-19T19:12:59.073Z,2.70
2023-04-19T19:23:58.939Z,8.00
2023-04-19T19:35:02.253Z,2.60
2023-04-19T19:45:58.769Z,3.30
2023-04-19T20:08:01.308Z,2.70
2023-04-19T20:18:58.304Z,2.50
2023-04-19T20:29:58.170Z,4.20
2023-04-19T20:40:58.066Z,3.30
2023-04-19T20:51:57.943Z,2.20
2023-04-19T21:02:57.881Z,2.10
2023-04-19T21:13:57.685Z,2.40
2023-04-19T21:24:57.573Z,4.50
2023-04-19T21:35:57.445Z,3.10
2023-04-19T21:46:57.422Z,2.30
2023-04-19T21:57:57.197Z,6.80
2023-04-19T22:08:57.079Z,2.60
2023-04-19T22:19:56.990Z,2.20
2023-04-19T22:30:56.836Z,3.00
2023-04-19T22:41:56.689Z,2.20
2023-04-19T22:52:56.562Z,2.40
2023-04-19T23:03:56.450Z,2.80
2023-04-19T23:14:56.320Z,3.20
2023-04-19T23:25:56.196Z,2.70
2023-04-19T23:36:56.062Z,3.10
2023-04-19T23:47:55.947Z,6.00
2023-04-19T23:58:55.814Z,3.90
